createdAt,value
2022-09-09T12:42:17.958Z,95858.31
2022-09-09T12:43:25.037Z,95849.19
2022-09-09T12:44:29.583Z,95836.81
2022-09-09T12:45:37.269Z,95844.56
2022-09-09T12:46:42.042Z,95834.69
2022-09-09T12:47:50.989Z,95836.91
2022-09-09T12:48:55.506Z,95835.56
2022-09-09T12:50:00.458Z,95824.81
2022-09-09T12:51:02.999Z,95822.31
2022-09-09T12:52:11.543Z,95820.03
2022-09-09T12:53:26.082Z,95815.75
2022-09-09T12:54:31.791Z,95821.03
2022-09-09T12:55:41.518Z,95811.22
2022-09-09T12:56:50.459Z,95813.72
2022-09-09T12:57:56.563Z,95810.94
2022-09-09T12:58:59.869Z,95808.03
2022-09-09T13:00:10.880Z,95809.19
2022-09-09T13:01:26.011Z,95811.56
2022-09-09T13:02:29.234Z,95807.84
2022-09-09T13:03:35.024Z,95810.75
2022-09-09T13:04:37.284Z,95803.59
2022-09-09T13:05:42.763Z,95805.81
2022-09-09T13:06:44.786Z,95809.97
2022-09-09T13:07:49.457Z,95807.97
2022-09-09T13:08:52.474Z,95802.34
2022-09-09T13:09:57.096Z,95807.09
2022-09-09T13:11:07.843Z,95797.69
2022-09-09T13:12:15.661Z,95796.97
2022-09-09T13:13:24.973Z,95786.22
2022-09-09T13:14:31.525Z,95781.97
2022-09-09T13:15:36.237Z,95779.97
2022-09-09T13:16:43.143Z,95784.22
2022-09-09T13:17:54.730Z,95781.63
2022-09-09T13:18:57.222Z,95789.97
2022-09-09T13:20:01.908Z,95788.75
2022-09-09T13:21:04.334Z,95786.25
2022-09-09T13:22:16.269Z,95782.88
2022-09-09T13:23:23.397Z,95793.59
2022-09-09T13:24:34.283Z,95798.13
2022-09-09T13:25:39.604Z,95781.84
2022-09-09T13:26:58.602Z,95779.06
2022-09-09T13:28:05.355Z,95783.00
2022-09-09T13:29:21.317Z,95776.03
2022-09-09T13:30:28.941Z,95778.75
2022-09-09T13:31:37.164Z,95782.25
2022-09-09T13:32:39.172Z,95784.69
2022-09-09T13:33:43.776Z,95786.34
2022-09-09T13:34:52.622Z,95781.88
2022-09-09T13:36:00.010Z,95784.00
2022-09-09T13:37:04.808Z,95784.34
2022-09-09T13:38:13.292Z,95779.34
2022-09-09T13:39:18.808Z,95781.31
2022-09-09T13:40:25.483Z,95773.94
2022-09-09T13:41:40.027Z,95773.59
2022-09-09T13:42:46.107Z,95766.78
2022-09-09T13:43:51.920Z,95775.03
2022-09-09T13:44:54.694Z,95764.78
2022-09-09T13:46:02.442Z,95765.16
2022-09-09T13:47:10.500Z,95778.38
2022-09-09T13:48:22.191Z,95773.22
2022-09-09T13:49:25.505Z,95773.22
2022-09-09T13:50:32.264Z,95767.88
2022-09-09T13:51:38.284Z,95771.16
2022-09-09T13:52:42.910Z,95767.44
2022-09-09T13:53:48.730Z,95770.03
2022-09-09T13:54:55.131Z,95762.78
2022-09-09T13:55:58.030Z,95758.50
2022-09-09T13:57:02.682Z,95769.31
2022-09-09T13:58:07.298Z,95762.22
2022-09-09T13:59:15.690Z,95755.09
2022-09-09T14:00:17.881Z,95757.84
2022-09-09T14:01:25.280Z,95756.66
2022-09-09T14:02:32.313Z,95763.22
2022-09-09T14:03:38.370Z,95765.16
2022-09-09T14:04:42.270Z,95767.53
2022-09-09T14:05:48.125Z,95777.69
2022-09-09T14:06:53.752Z,95770.44
2022-09-09T14:07:55.987Z,95765.28
2022-09-09T14:09:00.591Z,95767.88
2022-09-09T14:10:02.831Z,95769.53
2022-09-09T14:11:07.696Z,95770.78
2022-09-09T14:12:11.999Z,95762.94
2022-09-09T14:13:19.396Z,95768.91
2022-09-09T14:14:21.392Z,95769.66
2022-09-09T14:15:26.176Z,95765.22
2022-09-09T14:16:28.882Z,95760.97
2022-09-09T14:17:33.487Z,95752.22
2022-09-09T14:18:35.555Z,95770.31
2022-09-09T14:19:40.826Z,95767.94
2022-09-09T14:20:42.830Z,95754.06
2022-09-09T14:21:47.427Z,95761.94
2022-09-09T14:22:49.439Z,95767.09
2022-09-09T14:23:54.105Z,95761.75
2022-09-09T14:24:56.072Z,95757.03
2022-09-09T14:26:00.665Z,95759.13
2022-09-09T14:27:03.107Z,95757.16
2022-09-09T14:28:07.709Z,95745.19
2022-09-09T14:29:12.185Z,95764.34
2022-09-09T14:30:17.028Z,95752.84
2022-09-09T14:31:22.259Z,95755.34
2022-09-09T14:32:24.316Z,95755.47
2022-09-09T14:33:30.256Z,95760.00
2022-09-09T14:34:33.429Z,95755.22
2022-09-09T14:35:38.092Z,95751.91
2022-09-09T14:36:40.122Z,95755.84
2022-09-09T14:37:45.737Z,95760.06
2022-09-09T14:38:48.459Z,95760.97
2022-09-09T14:39:55.120Z,95757.19
2022-09-09T14:40:57.606Z,95758.00
2022-09-09T14:42:02.202Z,95761.16
2022-09-09T14:43:04.680Z,95752.81
2022-09-09T14:44:09.269Z,95753.66
2022-09-09T14:45:14.249Z,95749.59
2022-09-09T14:46:20.879Z,95747.97
2022-09-09T14:47:23.227Z,95753.41
2022-09-09T14:48:27.896Z,95743.28
2022-09-09T14:49:29.865Z,95746.91
2022-09-09T14:50:35.915Z,95745.25
2022-09-09T14:51:38.162Z,95751.09
2022-09-09T14:52:42.723Z,95751.38
2022-09-09T14:53:45.694Z,95746.78
2022-09-09T14:54:50.600Z,95750.19
2022-09-09T14:55:52.649Z,95746.41
2022-09-09T14:56:58.186Z,95745.66
2022-09-09T14:58:00.191Z,95740.84
2022-09-09T14:59:05.045Z,95733.59
2022-09-09T15:00:08.693Z,95732.28
2022-09-09T15:01:18.742Z,95737.66
2022-09-09T15:02:20.863Z,95734.75
2022-09-09T15:03:25.676Z,95731.31
2022-09-09T15:04:28.780Z,95732.09
2022-09-09T15:05:33.465Z,95732.53
2022-09-09T15:06:39.543Z,95746.63
2022-09-09T15:07:44.584Z,95736.59
2022-09-09T15:08:47.768Z,95741.56
2022-09-09T15:09:53.771Z,95747.50
2022-09-09T15:11:01.109Z,95743.78
2022-09-09T15:12:05.988Z,95738.78
2022-09-09T15:13:07.985Z,95738.22
2022-09-09T15:14:13.247Z,95749.69
2022-09-09T15:15:18.325Z,95749.22
2022-09-09T15:16:25.416Z,95753.38
2022-09-09T15:17:30.228Z,95748.41
2022-09-09T15:18:33.371Z,95745.94
2022-09-09T15:19:37.984Z,95750.41
2022-09-09T15:20:40.472Z,95744.47
2022-09-09T15:21:45.474Z,95742.47
2022-09-09T15:22:47.544Z,95748.75
2022-09-09T15:23:52.950Z,95754.69
2022-09-09T15:24:54.932Z,95745.44
2022-09-09T15:25:59.933Z,95746.44
2022-09-09T15:27:05.273Z,95751.91
2022-09-09T15:28:07.294Z,95745.13
2022-09-09T15:29:12.461Z,95741.31
2022-09-09T15:30:14.752Z,95735.88
2022-09-09T15:31:21.577Z,95742.94
2022-09-09T15:32:28.803Z,95726.94
2022-09-09T15:33:30.801Z,95726.06
2022-09-09T15:34:35.840Z,95720.81
2022-09-09T15:35:37.837Z,95720.38
2022-09-09T15:36:44.276Z,95721.75
2022-09-09T15:37:46.615Z,95722.22
2022-09-09T15:38:51.648Z,95723.56
2022-09-09T15:39:56.272Z,95729.78
2022-09-09T15:40:59.595Z,95727.94
2022-09-09T15:42:04.481Z,95726.22
2022-09-09T15:43:06.720Z,95722.88
2022-09-09T15:44:12.119Z,95724.63
2022-09-09T15:45:14.211Z,95719.59
2022-09-09T15:46:31.395Z,95718.75
2022-09-09T15:47:38.706Z,95721.91
2022-09-09T15:48:40.704Z,95718.16
2022-09-09T15:49:45.301Z,95721.09
2022-09-09T15:50:47.328Z,95713.22
2022-09-09T15:51:56.186Z,95715.78
2022-09-09T15:52:58.391Z,95717.91
2022-09-09T15:54:03.227Z,95720.91
2022-09-09T15:55:09.336Z,95713.34
2022-09-09T15:56:12.138Z,95719.41
2022-09-09T15:57:17.294Z,95731.72
2022-09-09T15:58:20.348Z,95731.50
2022-09-09T15:59:25.044Z,95742.56
2022-09-09T16:00:27.265Z,95735.53
2022-09-09T16:01:32.225Z,95757.28
2022-09-09T16:02:39.602Z,95743.78
2022-09-09T16:03:45.657Z,95738.28
2022-09-09T16:04:50.388Z,95747.63
2022-09-09T16:05:52.762Z,95740.66
2022-09-09T16:06:59.503Z,95751.88
2022-09-09T16:08:05.298Z,95750.75
2022-09-09T16:09:11.324Z,95751.06
2022-09-09T16:10:14.696Z,95742.69
2022-09-09T16:11:21.150Z,95751.66
2022-09-09T16:12:26.508Z,95747.34
2022-09-09T16:13:29.018Z,95742.50
2022-09-09T16:14:36.807Z,95747.66
2022-09-09T16:15:39.150Z,95749.56
2022-09-09T16:16:43.780Z,95743.88
2022-09-09T16:17:48.385Z,95746.00
2022-09-09T16:18:54.614Z,95749.09
2022-09-09T16:19:59.267Z,95755.59
2022-09-09T16:21:01.527Z,95750.84
2022-09-09T16:22:07.660Z,95753.91
2022-09-09T16:23:10.045Z,95754.94
2022-09-09T16:24:16.729Z,95757.28
2022-09-09T16:25:19.690Z,95749.28
2022-09-09T16:26:24.606Z,95751.34
2022-09-09T16:27:26.722Z,95763.06
2022-09-09T16:28:31.783Z,95764.63
2022-09-09T16:29:37.246Z,95767.03
2022-09-09T16:30:40.066Z,95765.41
2022-09-09T16:31:45.445Z,95766.09
2022-09-09T16:32:50.702Z,95771.91
2022-09-09T16:33:55.582Z,95760.28
2022-09-09T16:34:57.630Z,95765.72
2022-09-09T16:36:02.433Z,95759.41
2022-09-09T16:37:07.079Z,95762.38
2022-09-09T16:38:09.149Z,95757.09
2022-09-09T16:39:15.784Z,95755.59
2022-09-09T16:40:18.442Z,95768.59
2022-09-09T16:41:23.137Z,95762.13
2022-09-09T16:42:25.269Z,95763.06
2022-09-09T16:43:29.945Z,95762.53
2022-09-09T16:44:34.674Z,95757.53
2022-09-09T16:45:43.400Z,95755.19
2022-09-09T16:46:49.867Z,95758.69
2022-09-09T16:47:54.840Z,95760.44
2022-09-09T16:49:00.974Z,95757.16
2022-09-09T16:50:03.077Z,95758.50
2022-09-09T16:51:09.758Z,95763.06
2022-09-09T16:52:18.432Z,95759.06
2022-09-09T16:53:22.571Z,95754.91
2022-09-09T16:54:28.378Z,95763.34
2022-09-09T16:55:31.072Z,95765.16
2022-09-09T16:56:38.049Z,95763.88
2022-09-09T16:57:40.428Z,95755.59
2022-09-09T16:58:46.387Z,95766.69
2022-09-09T16:59:51.477Z,95763.06
2022-09-09T17:00:59.321Z,95767.19
2022-09-09T17:02:06.077Z,95764.56
2022-09-09T17:03:13.711Z,95767.22
2022-09-09T17:04:21.825Z,95770.94
2022-09-09T17:05:24.306Z,95760.84
2022-09-09T17:06:30.159Z,95772.03
2022-09-09T17:07:33.613Z,95781.03
2022-09-09T17:08:38.265Z,95775.53
2022-09-09T17:09:43.091Z,95773.84
2022-09-09T17:10:45.448Z,95772.88
2022-09-09T17:11:51.850Z,95769.00
2022-09-09T17:12:54.153Z,95776.19
2022-09-09T17:14:01.345Z,95777.31
2022-09-09T17:15:04.624Z,95771.91
2022-09-09T17:16:09.562Z,95778.53
2022-09-09T17:17:31.102Z,95794.13
2022-09-09T17:18:39.806Z,95799.53
2022-09-09T17:19:44.447Z,95799.09
2022-09-09T17:20:47.409Z,95804.72
2022-09-09T17:22:15.562Z,95797.13
2022-09-09T17:23:17.092Z,95799.41
2022-09-09T17:24:22.812Z,95800.13
2022-09-09T17:25:25.436Z,95809.44
2022-09-09T17:26:32.491Z,95805.25
2022-09-09T17:27:37.277Z,95802.69
2022-09-09T17:28:43.276Z,95803.81
2022-09-09T17:29:47.956Z,95804.16
2022-09-09T17:30:53.749Z,95793.94
2022-09-09T17:31:59.116Z,95804.22
2022-09-09T17:33:01.291Z,95800.38
2022-09-09T17:34:08.916Z,95808.50
2022-09-09T17:35:10.935Z,95803.06
2022-09-09T17:36:18.480Z,95802.19
2022-09-09T17:37:20.590Z,95812.41
2022-09-09T17:38:28.662Z,95810.97
2022-09-09T17:39:33.470Z,95805.84
2022-09-09T17:40:35.506Z,95817.25
2022-09-09T17:41:41.851Z,95816.81
2022-09-09T17:42:43.893Z,95820.41
2022-09-09T17:43:48.763Z,95822.44
2022-09-09T17:44:50.797Z,95828.03
2022-09-09T17:45:55.469Z,95825.00
2022-09-09T17:47:00.478Z,95824.41
2022-09-09T17:48:03.761Z,95834.06
2022-09-09T17:49:13.030Z,95826.22
2022-09-09T17:50:19.549Z,95827.03
2022-09-09T17:51:25.649Z,95834.28
2022-09-09T17:52:32.787Z,95829.06
2022-09-09T17:53:39.030Z,95838.59
2022-09-09T17:54:43.602Z,95838.13
2022-09-09T17:55:48.789Z,95836.47
2022-09-09T17:56:55.736Z,95840.00
2022-09-09T17:57:57.723Z,95848.47
2022-09-09T17:59:03.532Z,95839.06
2022-09-09T18:00:10.749Z,95842.50
2022-09-09T18:01:15.522Z,95840.97
2022-09-09T18:02:20.403Z,95848.09
2022-09-09T18:03:22.600Z,95844.25
2022-09-09T18:04:29.842Z,95849.91
2022-09-09T18:05:31.879Z,95854.47
2022-09-09T18:06:39.798Z,95847.53
2022-09-09T18:07:44.354Z,95858.97
2022-09-09T18:08:49.719Z,95856.91
2022-09-09T18:09:54.309Z,95858.22
2022-09-09T18:10:56.669Z,95859.16
2022-09-09T18:12:02.622Z,95857.03
2022-09-09T18:13:04.568Z,95858.78
2022-09-09T18:14:10.660Z,95866.59
2022-09-09T18:15:20.945Z,95862.59
2022-09-09T18:16:36.114Z,95871.97
2022-09-09T18:17:40.739Z,95867.19
2022-09-09T18:18:42.767Z,95868.03
2022-09-09T18:19:49.964Z,95868.84
2022-09-09T18:20:59.135Z,95877.44
2022-09-09T18:22:04.969Z,95871.00
2022-09-09T18:23:06.968Z,95865.09
2022-09-09T18:24:12.562Z,95859.13
2022-09-09T18:25:14.963Z,95861.53
2022-09-09T18:26:22.666Z,95875.75
2022-09-09T18:27:28.677Z,95866.47
2022-09-09T18:28:30.691Z,95874.78
2022-09-09T18:29:35.398Z,95871.94
2022-09-09T18:30:40.415Z,95870.97
2022-09-09T18:31:46.187Z,95871.81
2022-09-09T18:32:53.091Z,95871.94
2022-09-09T18:33:56.985Z,95872.88
2022-09-09T18:35:04.160Z,95873.94
2022-09-09T18:36:07.893Z,95877.38
2022-09-09T18:37:13.369Z,95875.59
2022-09-09T18:38:17.425Z,95881.19
2022-09-09T18:39:23.494Z,95878.59
2022-09-09T18:40:28.161Z,95880.59
2022-09-09T18:41:33.074Z,95879.16
2022-09-09T18:42:37.599Z,95877.84
2022-09-09T18:43:39.701Z,95873.78
2022-09-09T18:44:44.458Z,95872.22
2022-09-09T18:45:46.550Z,95876.66
2022-09-09T18:46:52.606Z,95877.84
2022-09-09T18:47:54.666Z,95880.81
2022-09-09T18:49:00.132Z,95888.16
2022-09-09T18:50:05.542Z,95891.31
2022-09-09T18:51:12.395Z,95886.47
2022-09-09T18:52:17.101Z,95890.13
2022-09-09T18:53:19.139Z,95898.28
2022-09-09T18:54:25.754Z,95899.56
2022-09-09T18:55:29.111Z,95895.59
2022-09-09T18:56:35.030Z,95896.66
2022-09-09T18:57:38.585Z,95907.22
2022-09-09T18:58:44.171Z,95910.66
2022-09-09T18:59:49.309Z,95905.06
2022-09-09T19:00:51.434Z,95907.78
2022-09-09T19:01:56.912Z,95914.25
2022-09-09T19:02:58.958Z,95899.44
2022-09-09T19:04:03.687Z,95906.53
2022-09-09T19:05:12.054Z,95910.09
2022-09-09T19:06:17.156Z,95910.22
2022-09-09T19:07:22.774Z,95907.69
2022-09-09T19:08:24.902Z,95912.19
2022-09-09T19:09:32.505Z,95916.78
2022-09-09T19:10:36.596Z,95914.50
2022-09-09T19:11:42.395Z,95908.66
2022-09-09T19:12:44.564Z,95916.78
2022-09-09T19:13:54.486Z,95920.56
2022-09-09T19:14:59.476Z,95919.09
2022-09-09T19:16:04.756Z,95922.88
2022-09-09T19:17:09.511Z,95918.91
2022-09-09T19:18:11.560Z,95929.66
2022-09-09T19:19:19.163Z,95928.94
2022-09-09T19:20:25.305Z,95931.03
2022-09-09T19:21:32.436Z,95925.06
2022-09-09T19:22:34.595Z,95923.72
2022-09-09T19:23:39.250Z,95927.28
2022-09-09T19:24:41.531Z,95930.91
2022-09-09T19:25:46.294Z,95924.34
2022-09-09T19:26:50.337Z,95918.69
2022-09-09T19:27:55.247Z,95916.44
2022-09-09T19:28:58.878Z,95927.88
2022-09-09T19:30:03.457Z,95921.19
2022-09-09T19:31:06.583Z,95925.78
2022-09-09T19:33:34.172Z,95915.47
2022-09-09T19:34:39.039Z,95919.31
2022-09-09T19:35:45.898Z,95921.38
2022-09-09T19:36:51.836Z,95925.84
2022-09-09T19:37:54.673Z,95922.41
2022-09-09T19:39:00.179Z,95931.19
2022-09-09T19:40:06.696Z,95925.22
2022-09-09T19:41:11.437Z,95921.03
2022-09-09T19:42:16.025Z,95926.38
2022-09-09T19:43:17.992Z,95926.25
2022-09-09T19:44:22.686Z,95925.72
2022-09-09T19:45:27.690Z,95925.94
2022-09-09T19:46:34.642Z,95924.25
2022-09-09T19:47:39.284Z,95922.78
2022-09-09T19:48:42.799Z,95926.53
2022-09-09T19:49:47.995Z,95925.78
2022-09-09T19:50:53.045Z,95926.00
2022-09-09T19:51:57.975Z,95930.47
2022-09-09T19:53:00.193Z,95929.00
2022-09-09T19:54:08.714Z,95921.38
2022-09-09T19:55:13.966Z,95935.16
2022-09-09T19:56:17.287Z,95924.94
2022-09-09T19:57:23.722Z,95922.47
2022-09-09T19:58:25.714Z,95926.13
2022-09-09T19:59:31.363Z,95926.41
2022-09-09T20:00:39.426Z,95930.25
2022-09-09T20:01:47.223Z,95934.81
2022-09-09T20:03:15.294Z,95933.25
2022-09-09T20:04:17.869Z,95927.56
2022-09-09T20:05:19.956Z,95927.78
2022-09-09T20:06:30.990Z,95921.09
2022-09-09T20:07:33.446Z,95936.06
2022-09-09T20:08:40.247Z,95927.81
2022-09-09T20:09:45.040Z,95925.41
2022-09-09T20:10:54.447Z,95928.94
2022-09-09T20:11:59.538Z,95928.00
2022-09-09T20:13:01.569Z,95931.34
2022-09-09T20:14:06.395Z,95933.22
2022-09-09T20:15:12.960Z,95935.06
2022-09-09T20:16:17.486Z,95934.34
2022-09-09T20:17:22.197Z,95942.22
2022-09-09T20:18:24.649Z,95941.41
2022-09-09T20:19:29.771Z,95943.06
2022-09-09T20:20:31.824Z,95937.84
2022-09-09T20:21:45.181Z,95938.69
2022-09-09T20:22:49.438Z,95943.25
2022-09-09T20:23:55.872Z,95949.94
2022-09-09T20:24:57.901Z,95944.00
2022-09-09T20:26:06.666Z,95948.81
2022-09-09T20:27:09.468Z,95943.81
2022-09-09T20:28:14.290Z,95949.00
2022-09-09T20:29:21.306Z,95945.66
2022-09-09T20:30:23.327Z,95942.88
2022-09-09T20:31:29.857Z,95942.97
2022-09-09T20:32:34.821Z,95945.66
2022-09-09T20:33:37.022Z,95945.03
2022-09-09T20:34:45.223Z,95945.09
2022-09-09T20:35:49.857Z,95954.69
2022-09-09T20:36:57.728Z,95948.66
2022-09-09T20:38:00.895Z,95947.63
2022-09-09T20:39:07.435Z,95954.28
2022-09-09T20:40:10.310Z,95957.44
2022-09-09T20:41:15.087Z,95956.44
2022-09-09T20:42:19.537Z,95963.13
2022-09-09T20:43:24.206Z,95959.41
2022-09-09T20:44:29.769Z,95962.53
2022-09-09T20:45:32.330Z,95960.50
2022-09-09T20:46:39.203Z,95959.34
2022-09-09T20:47:41.439Z,95966.88
2022-09-09T20:48:46.173Z,95965.88
2022-09-09T20:49:50.828Z,95957.84
2022-09-09T20:50:52.894Z,95956.00
2022-09-09T20:52:00.142Z,95954.13
2022-09-09T20:53:02.186Z,95950.59
2022-09-09T20:54:09.308Z,95956.50
2022-09-09T20:55:11.355Z,95951.09
2022-09-09T20:56:18.219Z,95952.88
2022-09-09T20:57:23.308Z,95953.00
2022-09-09T20:58:28.519Z,95954.84
2022-09-09T20:59:35.448Z,95953.28
2022-09-09T21:00:37.480Z,95945.59
2022-09-09T21:01:42.805Z,95959.50
2022-09-09T21:02:45.484Z,95957.84
2022-09-09T21:03:50.891Z,95956.38
2022-09-09T21:04:55.557Z,95954.91
2022-09-09T21:05:58.399Z,95948.66
2022-09-09T21:07:07.592Z,95959.31
2022-09-09T21:08:09.742Z,95957.84
2022-09-09T21:09:14.418Z,95947.78
2022-09-09T21:10:17.630Z,95958.50
2022-09-09T21:11:22.276Z,95955.81
2022-09-09T21:12:24.432Z,95957.47
2022-09-09T21:13:29.050Z,95959.13
2022-09-09T21:14:32.785Z,95955.59
2022-09-09T21:15:38.156Z,95961.72
2022-09-09T21:16:43.105Z,95959.63
2022-09-09T21:17:45.136Z,95960.44
2022-09-09T21:18:50.027Z,95963.03
2022-09-09T21:19:55.294Z,95953.38
2022-09-09T21:21:02.169Z,95963.78
2022-09-09T21:22:07.105Z,95966.47
2022-09-09T21:23:11.938Z,95963.59
2022-09-09T21:24:16.789Z,95962.56
2022-09-09T21:25:18.772Z,95958.00
2022-09-09T21:26:23.419Z,95962.38
2022-09-09T21:27:25.844Z,95955.19
2022-09-09T21:28:31.405Z,95957.03
2022-09-09T21:29:33.550Z,95957.59
2022-09-09T21:30:43.973Z,95956.97
2022-09-09T21:31:46.564Z,95960.31
2022-09-09T21:32:51.593Z,95960.38
2022-09-09T21:33:53.635Z,95955.59
2022-09-09T21:34:58.222Z,95956.31
2022-09-09T21:36:03.438Z,95962.38
2022-09-09T21:37:12.220Z,95960.38
2022-09-09T21:38:17.407Z,95956.22
2022-09-09T21:39:22.251Z,95953.50
2022-09-09T21:40:24.799Z,95955.09
2022-09-09T21:41:29.445Z,95955.19
2022-09-09T21:42:31.772Z,95953.72
2022-09-09T21:43:36.554Z,95960.50
2022-09-09T21:44:41.170Z,95954.47
2022-09-09T21:45:43.359Z,95953.72
2022-09-09T21:46:48.078Z,95961.75
2022-09-09T21:47:51.200Z,95958.94
2022-09-09T21:48:56.654Z,95958.31
2022-09-09T21:50:01.083Z,95961.13
2022-09-09T21:51:07.913Z,95962.50
2022-09-09T21:52:12.560Z,95958.97
2022-09-09T21:53:19.151Z,95958.56
2022-09-09T21:54:21.439Z,95952.16
2022-09-09T21:55:26.001Z,95959.06
2022-09-09T21:56:28.138Z,95953.09
2022-09-09T21:57:32.846Z,95954.47
2022-09-09T21:58:35.428Z,95954.75
2022-09-09T21:59:40.719Z,95959.44
2022-09-09T22:00:45.836Z,95959.00
2022-09-09T22:01:50.604Z,95966.38
2022-09-09T22:02:52.801Z,95961.47
2022-09-09T22:03:57.459Z,95964.44
2022-09-09T22:04:59.463Z,95961.13
2022-09-09T22:06:08.593Z,95961.53
2022-09-09T22:07:17.166Z,95960.03
2022-09-09T22:08:21.884Z,95960.59
2022-09-09T22:09:26.726Z,95964.84
2022-09-09T22:10:29.020Z,95962.16
2022-09-09T22:11:33.752Z,95958.19
2022-09-09T22:12:36.079Z,95962.44
2022-09-09T22:13:41.648Z,95961.72
2022-09-09T22:14:43.689Z,95965.25
2022-09-09T22:15:49.275Z,95960.25
2022-09-09T22:16:51.634Z,95962.09
2022-09-09T22:17:56.351Z,95958.78
2022-09-09T22:19:03.649Z,95958.09
2022-09-09T22:20:07.451Z,95955.81
2022-09-09T22:21:14.208Z,95957.66
2022-09-09T22:22:19.668Z,95956.00
2022-09-09T22:23:24.621Z,95961.22
2022-09-09T22:24:27.689Z,95954.50
2022-09-09T22:25:36.336Z,95949.50
2022-09-09T22:26:39.189Z,95948.34
2022-09-09T22:27:43.771Z,95958.50
2022-09-09T22:28:45.757Z,95955.81
2022-09-09T22:29:50.364Z,95957.84
2022-09-09T22:30:52.446Z,95959.91
2022-09-09T22:31:57.170Z,95955.19
2022-09-09T22:32:59.245Z,95945.72
2022-09-09T22:34:03.827Z,95946.75
2022-09-09T22:35:07.777Z,95955.28
2022-09-09T22:36:12.781Z,95953.72
2022-09-09T22:37:14.805Z,95951.75
2022-09-09T22:38:22.355Z,95958.34
2022-09-09T22:39:24.763Z,95951.44
2022-09-09T22:40:30.001Z,95955.69
2022-09-09T22:41:32.381Z,95952.53
2022-09-09T22:42:37.512Z,95962.66
2022-09-09T22:43:42.349Z,95956.91
2022-09-09T22:44:46.949Z,95958.06
2022-09-09T22:45:50.105Z,95952.84
2022-09-09T22:46:55.412Z,95961.28
2022-09-09T22:47:57.425Z,95954.13
2022-09-09T22:49:03.838Z,95956.84
2022-09-09T22:50:07.283Z,95962.13
2022-09-09T22:51:14.228Z,95954.13
2022-09-09T22:52:17.201Z,95958.69
2022-09-09T22:53:24.403Z,95954.56
2022-09-09T22:54:27.074Z,95955.06
2022-09-09T22:55:32.295Z,95957.47
2022-09-09T22:56:37.317Z,95956.63
2022-09-09T22:57:39.291Z,95951.09
2022-09-09T22:58:43.934Z,95961.47
2022-09-09T22:59:46.028Z,95956.69
2022-09-09T23:00:51.324Z,95954.00
2022-09-09T23:01:57.149Z,95956.13
2022-09-09T23:02:59.339Z,95954.22
2022-09-09T23:04:04.636Z,95953.88
2022-09-09T23:05:08.645Z,95952.22
2022-09-09T23:06:22.363Z,95957.38
2022-09-09T23:07:24.616Z,95953.25
2022-09-09T23:08:34.528Z,95950.44
2022-09-09T23:09:36.558Z,95956.78
2022-09-09T23:10:43.281Z,95962.19
2022-09-09T23:11:46.946Z,95961.69
2022-09-09T23:12:51.559Z,95959.44
2022-09-09T23:13:56.050Z,95964.13
2022-09-09T23:15:00.614Z,95959.31
2022-09-09T23:16:09.488Z,95965.25
2022-09-09T23:17:18.573Z,95965.81
2022-09-09T23:18:22.409Z,95965.59
2022-09-09T23:19:28.821Z,95959.16
2022-09-09T23:20:32.187Z,95965.94
2022-09-09T23:21:37.494Z,95967.41
2022-09-09T23:22:40.615Z,95961.16
2022-09-09T23:23:48.702Z,95958.47
2022-09-09T23:24:52.865Z,95962.72
2022-09-09T23:25:57.505Z,95963.38
2022-09-09T23:27:02.397Z,95959.97
2022-09-09T23:28:04.621Z,95965.59
2022-09-09T23:29:09.792Z,95966.34
2022-09-09T23:30:12.764Z,95960.63
2022-09-09T23:31:19.972Z,95962.00
2022-09-09T23:32:22.953Z,95969.69
2022-09-09T23:33:27.622Z,95963.44
2022-09-09T23:34:32.223Z,95955.63
2022-09-09T23:35:34.219Z,95956.06
2022-09-09T23:36:39.298Z,95957.31
2022-09-09T23:37:41.407Z,95960.34
2022-09-09T23:38:49.030Z,95963.56
2022-09-09T23:39:51.021Z,95959.19
2022-09-09T23:40:56.106Z,95964.41
2022-09-09T23:42:05.697Z,95960.56
2022-09-09T23:43:09.112Z,95963.88
2022-09-09T23:44:15.026Z,95976.09
2022-09-09T23:45:18.522Z,95976.50
2022-09-09T23:46:25.312Z,95967.53
2022-09-09T23:47:30.010Z,95982.00
2022-09-09T23:48:32.042Z,95977.38
2022-09-09T23:49:37.350Z,95977.19
2022-09-09T23:50:39.337Z,95978.41
2022-09-09T23:51:44.089Z,95980.38
2022-09-09T23:52:46.390Z,95986.59
2022-09-09T23:53:57.006Z,95986.88
2022-09-09T23:54:59.553Z,95988.28
2022-09-09T23:56:04.357Z,95986.84
2022-09-09T23:57:08.969Z,95987.59
2022-09-09T23:58:11.081Z,95987.03
2022-09-09T23:59:15.822Z,95989.44
